createdAt,value
2022-09-23T00:01:21.480Z,20.12
2022-09-23T00:03:50.498Z,20.13
2022-09-23T00:06:20.387Z,20.13
2022-09-23T00:08:49.806Z,20.13
2022-09-23T00:11:22.745Z,20.13
2022-09-23T00:13:53.330Z,20.12
2022-09-23T00:16:28.661Z,20.10
2022-09-23T00:18:56.035Z,20.07
2022-09-23T00:21:23.400Z,20.04
2022-09-23T00:23:50.738Z,20.02
2022-09-23T00:26:19.719Z,20.01
2022-09-23T00:28:48.161Z,19.97
2022-09-23T00:31:21.779Z,19.94
2022-09-23T00:33:56.889Z,19.95
2022-09-23T00:36:24.987Z,19.96
2022-09-23T00:38:52.502Z,19.97
2022-09-23T00:41:20.137Z,19.97
2022-09-23T00:43:59.747Z,19.97
2022-09-23T00:46:37.252Z,19.97
2022-09-23T00:49:12.813Z,19.94
2022-09-23T00:51:54.589Z,19.93
2022-09-23T00:54:24.140Z,19.91
2022-09-23T00:56:51.659Z,19.90
2022-09-23T00:59:19.725Z,19.88
2022-09-23T01:01:48.761Z,19.90
2022-09-23T01:04:16.318Z,19.90
2022-09-23T01:06:43.393Z,19.91
2022-09-23T01:09:10.688Z,19.91
2022-09-23T01:11:43.414Z,19.92
2022-09-23T01:14:49.223Z,19.92
2022-09-23T01:17:49.253Z,19.89
2022-09-23T01:20:28.192Z,19.91
2022-09-23T01:23:04.981Z,19.89
2022-09-23T01:26:15.490Z,19.87
2022-09-23T01:29:27.410Z,19.87
2022-09-23T01:32:08.436Z,19.87
2022-09-23T01:34:47.983Z,19.88
2022-09-23T01:37:32.132Z,19.88
2022-09-23T01:40:18.738Z,19.85
2022-09-23T01:43:05.678Z,19.83
2022-09-23T01:45:41.617Z,19.84
2022-09-23T01:48:34.698Z,19.80
2022-09-23T01:51:08.703Z,19.80
2022-09-23T01:54:00.741Z,19.77
2022-09-23T01:56:31.511Z,19.75
2022-09-23T01:59:17.817Z,19.73
2022-09-23T02:02:15.531Z,19.69
2022-09-23T02:05:05.994Z,19.67
2022-09-23T02:07:46.482Z,19.71
2022-09-23T02:10:21.825Z,19.73
2022-09-23T02:12:51.134Z,19.75
2022-09-23T02:15:23.089Z,19.75
2022-09-23T02:17:54.177Z,19.75
2022-09-23T02:20:30.264Z,19.76
2022-09-23T02:23:19.746Z,19.79
2022-09-23T02:26:12.374Z,19.80
2022-09-23T02:29:00.730Z,19.81
2022-09-23T02:31:55.248Z,19.84
2022-09-23T02:34:46.949Z,19.80
2022-09-23T02:37:29.112Z,19.72
2022-09-23T02:40:23.781Z,19.71
2022-09-23T02:43:12.719Z,19.71
2022-09-23T02:45:39.909Z,19.64
2022-09-23T02:48:14.976Z,19.60
2022-09-23T02:50:42.826Z,19.60
2022-09-23T02:53:10.150Z,19.57
2022-09-23T02:55:37.335Z,19.58
2022-09-23T02:58:05.661Z,19.57
2022-09-23T03:00:56.111Z,19.54
2022-09-23T03:03:47.321Z,19.53
2022-09-23T03:06:27.820Z,19.51
2022-09-23T03:09:09.417Z,19.50
2022-09-23T03:11:40.341Z,19.49
2022-09-23T03:14:24.040Z,19.49
2022-09-23T03:17:03.711Z,19.49
2022-09-23T03:20:07.554Z,19.48
2022-09-23T03:22:39.655Z,19.48
2022-09-23T03:25:12.375Z,19.47
2022-09-23T03:27:42.685Z,19.45
2022-09-23T03:30:11.077Z,19.45
2022-09-23T03:32:39.449Z,19.45
2022-09-23T03:35:07.108Z,19.46
2022-09-23T03:37:46.725Z,19.47
2022-09-23T03:40:20.894Z,19.55
2022-09-23T03:42:49.273Z,19.60
2022-09-23T03:45:20.683Z,19.62
2022-09-23T03:47:48.027Z,19.62
2022-09-23T03:50:17.497Z,19.64
2022-09-23T03:52:44.825Z,19.64
2022-09-23T03:55:12.109Z,19.60
2022-09-23T03:57:39.876Z,19.57
2022-09-23T04:00:08.252Z,19.54
2022-09-23T04:02:41.877Z,19.49
2022-09-23T04:05:12.497Z,19.45
2022-09-23T04:07:40.577Z,19.46
2022-09-23T04:10:08.352Z,19.44
2022-09-23T04:12:35.430Z,19.45
2022-09-23T04:15:02.564Z,19.43
2022-09-23T04:17:30.375Z,19.40
2022-09-23T04:19:57.425Z,19.40
2022-09-23T04:22:24.754Z,19.36
2022-09-23T04:24:52.321Z,19.32
2022-09-23T04:27:19.805Z,19.28
2022-09-23T04:29:46.906Z,19.21
2022-09-23T04:32:14.331Z,19.16
2022-09-23T04:34:41.455Z,19.12
2022-09-23T04:37:08.717Z,19.16
2022-09-23T04:39:35.870Z,19.21
2022-09-23T04:42:04.261Z,19.28
2022-09-23T04:44:31.410Z,19.37
2022-09-23T04:46:58.912Z,19.44
2022-09-23T04:49:26.391Z,19.49
2022-09-23T04:51:54.514Z,19.52
2022-09-23T04:54:21.646Z,19.52
2022-09-23T04:56:48.861Z,19.54
2022-09-23T04:59:15.994Z,19.56
2022-09-23T05:01:43.815Z,19.62
2022-09-23T05:04:13.543Z,19.67
2022-09-23T05:06:40.722Z,19.72
2022-09-23T05:09:09.112Z,19.77
2022-09-23T05:11:36.490Z,19.75
2022-09-23T05:14:03.904Z,19.43
2022-09-23T05:16:31.185Z,18.50
2022-09-23T05:18:58.423Z,17.85
2022-09-23T05:21:30.468Z,17.35
2022-09-23T05:24:00.860Z,17.01
2022-09-23T05:26:31.079Z,16.81
2022-09-23T05:28:59.152Z,16.73
2022-09-23T05:31:29.268Z,16.63
2022-09-23T05:34:02.733Z,16.60
2022-09-23T05:36:35.592Z,16.63
2022-09-23T05:39:05.563Z,16.51
2022-09-23T05:41:34.111Z,16.54
2022-09-23T05:44:01.601Z,16.61
2022-09-23T05:46:30.708Z,16.50
2022-09-23T05:49:02.596Z,16.39
2022-09-23T05:51:32.680Z,16.38
2022-09-23T05:54:03.088Z,16.47
2022-09-23T05:56:31.504Z,16.51
2022-09-23T05:59:00.737Z,16.40
2022-09-23T06:01:32.460Z,16.35
2022-09-23T06:04:01.173Z,16.36
2022-09-23T06:06:29.759Z,16.35
2022-09-23T06:08:59.452Z,16.46
2022-09-23T06:11:27.493Z,16.48
2022-09-23T06:13:56.198Z,16.52
2022-09-23T06:16:23.482Z,16.65
2022-09-23T06:18:50.577Z,16.76
2022-09-23T06:21:18.630Z,17.19
2022-09-23T06:23:46.490Z,17.54
2022-09-23T06:26:15.664Z,17.53
2022-09-23T06:28:44.271Z,18.11
2022-09-23T06:31:14.401Z,19.14
2022-09-23T06:33:43.231Z,19.87
2022-09-23T06:36:11.509Z,20.76
2022-09-23T06:38:44.966Z,21.57
2022-09-23T06:41:13.704Z,22.11
2022-09-23T06:43:41.070Z,22.48
2022-09-23T06:46:11.078Z,22.94
2022-09-23T06:48:40.823Z,23.03
2022-09-23T06:51:14.014Z,23.37
2022-09-23T06:53:41.108Z,23.70
2022-09-23T06:56:11.615Z,23.83
2022-09-23T06:58:40.234Z,23.92
2022-09-23T07:01:09.819Z,23.48
2022-09-23T07:03:37.387Z,23.47
2022-09-23T07:06:05.993Z,23.90
2022-09-23T07:08:36.328Z,24.08
2022-09-23T07:11:06.955Z,24.31
2022-09-23T07:13:35.124Z,23.85
2022-09-23T07:16:02.453Z,23.81
2022-09-23T07:18:36.777Z,23.86
2022-09-23T07:21:15.583Z,24.10
2022-09-23T07:23:44.436Z,24.40
2022-09-23T07:26:12.272Z,24.96
2022-09-23T07:28:39.940Z,25.11
2022-09-23T07:31:10.437Z,24.97
2022-09-23T07:33:40.043Z,24.94
2022-09-23T07:36:10.605Z,24.05
2022-09-23T07:38:41.505Z,23.09
2022-09-23T07:41:13.774Z,22.90
2022-09-23T07:43:41.510Z,22.55
2022-09-23T07:46:13.309Z,22.41
2022-09-23T07:48:42.023Z,22.03
2022-09-23T07:51:12.513Z,22.49
2022-09-23T07:53:40.267Z,22.63
2022-09-23T07:56:07.765Z,22.59
2022-09-23T07:58:35.271Z,22.35
2022-09-23T08:01:07.418Z,22.19
2022-09-23T08:03:35.563Z,21.96
2022-09-23T08:06:13.743Z,21.91
2022-09-23T08:08:43.880Z,22.21
2022-09-23T08:11:14.387Z,22.54
2022-09-23T08:13:42.656Z,22.87
2022-09-23T08:16:10.460Z,23.09
2022-09-23T08:18:37.695Z,22.89
2022-09-23T08:21:05.014Z,22.81
2022-09-23T08:23:33.758Z,22.70
2022-09-23T08:26:04.781Z,22.63
2022-09-23T08:28:34.001Z,22.78
2022-09-23T08:31:01.508Z,22.67
2022-09-23T08:33:29.138Z,22.60
2022-09-23T08:36:04.917Z,22.63
2022-09-23T08:38:32.706Z,22.80
2022-09-23T08:41:23.974Z,22.57
2022-09-23T08:43:57.953Z,22.77
2022-09-23T08:46:37.831Z,22.81
2022-09-23T08:49:07.963Z,22.64
2022-09-23T08:51:48.749Z,22.27
2022-09-23T08:54:18.423Z,22.16
2022-09-23T08:56:51.492Z,22.40
2022-09-23T08:59:32.254Z,22.48
2022-09-23T09:07:31.826Z,22.60
2022-09-23T09:10:21.477Z,22.74
2022-09-23T09:12:54.307Z,22.63
2022-09-23T09:15:25.205Z,22.81
2022-09-23T09:18:11.437Z,22.86
2022-09-23T09:20:48.323Z,22.93
2022-09-23T09:23:36.517Z,22.93
2022-09-23T09:26:06.041Z,22.73
2022-09-23T09:28:41.929Z,22.66
2022-09-23T09:31:15.197Z,22.58
2022-09-23T09:33:58.093Z,22.69
2022-09-23T09:36:54.213Z,22.47
2022-09-23T09:39:25.529Z,22.50
2022-09-23T09:41:55.644Z,22.55
2022-09-23T09:44:48.240Z,22.59
2022-09-23T09:47:56.920Z,22.48
2022-09-23T09:50:50.128Z,22.64
2022-09-23T09:53:29.595Z,22.77
2022-09-23T09:56:05.234Z,22.85
2022-09-23T09:58:56.639Z,22.82
2022-09-23T10:01:37.441Z,22.77
2022-09-23T10:04:19.958Z,23.04
2022-09-23T10:07:07.601Z,23.28
2022-09-23T10:09:39.324Z,22.93
2022-09-23T10:12:18.761Z,22.82
2022-09-23T10:14:51.777Z,22.83
2022-09-23T10:17:23.070Z,22.91
2022-09-23T10:20:02.413Z,22.95
2022-09-23T10:22:37.611Z,22.91
2022-09-23T10:25:10.427Z,23.11
2022-09-23T10:27:38.983Z,23.14
2022-09-23T10:30:24.633Z,23.04
2022-09-23T10:32:55.142Z,23.01
2022-09-23T10:35:24.664Z,23.19
2022-09-23T10:37:56.947Z,23.15
2022-09-23T10:40:51.133Z,23.15
2022-09-23T10:44:16.991Z,23.25
2022-09-23T10:47:14.751Z,23.40
2022-09-23T10:50:11.459Z,23.15
2022-09-23T10:52:52.723Z,23.20
2022-09-23T10:55:47.035Z,23.24
2022-09-23T10:58:26.002Z,23.44
2022-09-23T11:01:05.613Z,23.32
2022-09-23T11:03:50.975Z,23.23
2022-09-23T11:06:47.623Z,23.09
2022-09-23T11:09:42.644Z,23.39
2022-09-23T11:12:35.666Z,23.47
2022-09-23T11:15:11.899Z,23.27
2022-09-23T11:17:48.440Z,23.41
2022-09-23T11:20:27.985Z,23.56
2022-09-23T11:23:22.515Z,23.40
2022-09-23T11:26:21.987Z,23.55
2022-09-23T11:29:24.349Z,23.56
2022-09-23T11:32:03.684Z,23.47
2022-09-23T11:34:51.206Z,23.47
2022-09-23T11:37:27.718Z,23.24
2022-09-23T11:40:19.853Z,23.32
2022-09-23T11:43:00.057Z,23.37
2022-09-23T11:46:02.197Z,23.31
2022-09-23T11:48:48.265Z,23.34
2022-09-23T11:51:38.298Z,22.88
2022-09-23T11:54:28.714Z,23.19
2022-09-23T11:57:01.693Z,23.38
2022-09-23T11:59:40.574Z,23.13
2022-09-23T12:02:20.728Z,23.26
2022-09-23T12:05:03.125Z,23.52
2022-09-23T12:07:54.915Z,23.42
2022-09-23T12:10:23.920Z,23.21
2022-09-23T12:13:07.449Z,23.23
2022-09-23T12:15:42.951Z,23.26
2022-09-23T12:18:28.520Z,23.18
2022-09-23T12:21:49.046Z,23.08
2022-09-23T12:24:55.918Z,23.46
2022-09-23T12:27:32.144Z,23.31
2022-09-23T12:30:03.677Z,23.34
2022-09-23T12:32:31.854Z,23.24
2022-09-23T12:35:00.724Z,23.35
2022-09-23T12:37:37.393Z,23.11
2022-09-23T12:40:31.322Z,23.15
2022-09-23T12:43:02.631Z,23.27
2022-09-23T12:45:33.972Z,23.03
2022-09-23T12:48:25.623Z,23.14
2022-09-23T12:51:18.754Z,23.16
2022-09-23T12:53:52.748Z,23.18
2022-09-23T12:56:32.433Z,23.38
2022-09-23T12:59:20.674Z,23.33
2022-09-23T13:01:48.630Z,23.32
2022-09-23T13:04:46.309Z,23.30
2022-09-23T13:07:23.737Z,23.06
2022-09-23T13:09:53.884Z,23.03
2022-09-23T13:12:29.469Z,22.87
2022-09-23T13:15:00.907Z,22.67
2022-09-23T13:17:36.498Z,22.57
2022-09-23T13:20:19.777Z,22.66
2022-09-23T13:22:50.278Z,22.67
2022-09-23T13:25:29.893Z,22.60
2022-09-23T13:28:01.848Z,22.80
2022-09-23T13:30:29.179Z,22.80
2022-09-23T13:33:12.886Z,22.86
2022-09-23T13:35:45.032Z,23.00
2022-09-23T13:38:21.314Z,23.02
2022-09-23T13:40:49.472Z,22.99
2022-09-23T13:43:25.552Z,23.06
2022-09-23T13:45:53.057Z,23.09
2022-09-23T13:48:24.084Z,23.08
2022-09-23T13:50:56.311Z,23.04
2022-09-23T13:53:33.198Z,23.04
2022-09-23T13:56:03.949Z,23.21
2022-09-23T13:58:32.895Z,23.13
2022-09-23T14:01:01.561Z,23.14
2022-09-23T14:03:40.245Z,23.06
2022-09-23T14:06:15.216Z,23.12
2022-09-23T14:08:46.471Z,23.02
2022-09-23T14:11:37.447Z,23.02
2022-09-23T14:14:08.157Z,22.81
2022-09-23T14:16:41.096Z,22.75
2022-09-23T14:19:17.042Z,22.83
2022-09-23T14:21:47.919Z,22.86
2022-09-23T14:24:31.021Z,22.74
2022-09-23T14:27:04.088Z,22.60
2022-09-23T14:29:34.341Z,22.52
2022-09-23T14:32:05.763Z,22.53
2022-09-23T14:34:53.258Z,22.66
2022-09-23T14:37:39.045Z,22.69
2022-09-23T14:40:14.402Z,22.69
2022-09-23T14:42:46.616Z,22.52
2022-09-23T14:45:25.631Z,22.51
2022-09-23T14:48:00.125Z,22.44
2022-09-23T14:50:47.806Z,22.38
2022-09-23T14:53:27.137Z,22.39
2022-09-23T14:56:00.243Z,22.38
2022-09-23T14:58:28.912Z,22.42
2022-09-23T15:01:01.092Z,22.39
2022-09-23T15:03:29.263Z,22.36
2022-09-23T15:06:08.492Z,22.29
2022-09-23T15:08:38.531Z,22.17
2022-09-23T15:11:09.679Z,22.11
2022-09-23T15:13:44.711Z,22.09
2022-09-23T15:16:15.807Z,22.10
2022-09-23T15:18:47.001Z,22.06
2022-09-23T15:21:22.093Z,22.07
2022-09-23T15:23:56.894Z,21.95
2022-09-23T15:26:45.133Z,21.94
2022-09-23T15:29:12.335Z,21.96
2022-09-23T15:31:39.584Z,21.98
2022-09-23T15:34:06.880Z,21.95
2022-09-23T15:36:35.168Z,21.95
2022-09-23T15:39:04.284Z,21.92
2022-09-23T15:41:33.768Z,21.87
2022-09-23T15:44:22.086Z,21.83
2022-09-23T15:46:52.093Z,21.81
2022-09-23T15:49:47.455Z,21.76
2022-09-23T15:52:16.123Z,21.72
2022-09-23T15:54:46.550Z,21.73
2022-09-23T15:57:13.835Z,21.75
2022-09-23T15:59:41.234Z,21.74
2022-09-23T16:02:18.509Z,21.68
2022-09-23T16:04:50.645Z,21.60
2022-09-23T16:07:19.894Z,21.60
2022-09-23T16:09:47.047Z,21.58
2022-09-23T16:12:14.821Z,21.53
2022-09-23T16:14:41.918Z,21.56
2022-09-23T16:17:13.449Z,21.53
2022-09-23T16:19:40.622Z,21.47
2022-09-23T16:22:07.941Z,21.41
2022-09-23T16:24:35.180Z,21.34
2022-09-23T16:27:07.976Z,21.34
2022-09-23T16:29:35.270Z,21.30
2022-09-23T16:32:02.695Z,21.26
2022-09-23T16:34:30.008Z,21.24
2022-09-23T16:36:57.484Z,21.20
2022-09-23T16:39:24.836Z,21.21
2022-09-23T16:41:52.878Z,21.16
2022-09-23T16:44:21.375Z,21.13
2022-09-23T16:46:48.531Z,21.11
2022-09-23T16:49:15.824Z,21.11
2022-09-23T16:51:43.384Z,21.10
2022-09-23T16:54:12.480Z,21.11
2022-09-23T16:56:45.428Z,21.11
2022-09-23T16:59:13.555Z,21.12
2022-09-23T17:01:59.706Z,21.07
2022-09-23T17:04:27.909Z,21.05
2022-09-23T17:06:56.139Z,21.05
2022-09-23T17:09:26.446Z,21.04
2022-09-23T17:12:27.959Z,21.01
2022-09-23T17:14:55.613Z,21.04
2022-09-23T17:17:22.881Z,21.03
2022-09-23T17:19:49.984Z,21.01
2022-09-23T17:22:17.167Z,21.04
2022-09-23T17:24:44.268Z,21.06
2022-09-23T17:27:11.580Z,21.03
2022-09-23T17:29:38.680Z,21.07
2022-09-23T17:32:05.798Z,21.08
2022-09-23T17:34:33.639Z,21.09
2022-09-23T17:37:01.124Z,21.13
2022-09-23T17:39:28.583Z,21.14
2022-09-23T17:41:58.739Z,21.13
2022-09-23T17:44:26.655Z,21.17
2022-09-23T17:46:53.987Z,21.16
2022-09-23T17:49:24.284Z,21.23
2022-09-23T17:51:51.552Z,21.27
2022-09-23T17:54:18.761Z,21.28
2022-09-23T17:56:45.919Z,21.34
2022-09-23T17:59:13.249Z,21.32
2022-09-23T18:01:40.580Z,21.30
2022-09-23T18:04:07.833Z,21.34
2022-09-23T18:06:36.238Z,21.34
2022-09-23T18:09:06.316Z,21.40
2022-09-23T18:11:37.022Z,21.35
2022-09-23T18:14:15.540Z,21.30
2022-09-23T18:16:44.737Z,21.26
2022-09-23T18:19:14.391Z,21.23
2022-09-23T18:21:48.079Z,21.17
2022-09-23T18:27:02.873Z,20.90
2022-09-23T18:29:30.331Z,20.81
2022-09-23T18:31:59.009Z,20.73
2022-09-23T18:34:26.260Z,20.62
2022-09-23T18:36:56.279Z,20.56
2022-09-23T18:39:23.634Z,20.52
2022-09-23T18:41:51.248Z,20.41
2022-09-23T18:44:20.139Z,20.30
2022-09-23T18:46:47.351Z,20.22
2022-09-23T18:49:33.042Z,20.11
2022-09-23T18:52:00.251Z,20.03
2022-09-23T18:54:29.183Z,19.98
2022-09-23T18:56:57.674Z,19.95
2022-09-23T18:59:29.181Z,19.92
2022-09-23T19:01:57.612Z,19.91
2022-09-23T19:04:26.686Z,19.89
2022-09-23T19:06:56.659Z,19.86
2022-09-23T19:09:24.071Z,19.85
2022-09-23T19:11:52.675Z,19.83
2022-09-23T19:14:20.614Z,19.79
2022-09-23T19:16:49.353Z,19.74
2022-09-23T19:19:16.730Z,19.70
2022-09-23T19:21:43.935Z,19.66
2022-09-23T19:24:15.823Z,19.66
2022-09-23T19:26:44.262Z,19.65
2022-09-23T19:29:15.800Z,19.62
2022-09-23T19:31:43.600Z,19.62
2022-09-23T19:34:18.023Z,19.65
2022-09-23T19:36:47.231Z,19.62
2022-09-23T19:39:25.295Z,19.59
2022-09-23T19:41:56.184Z,19.59
2022-09-23T19:44:25.363Z,19.58
2022-09-23T19:46:56.324Z,19.55
2022-09-23T19:49:25.481Z,19.48
2022-09-23T19:51:56.239Z,19.44
2022-09-23T19:54:26.749Z,19.38
2022-09-23T19:56:54.223Z,19.32
2022-09-23T19:59:21.409Z,19.33
2022-09-23T20:01:49.282Z,19.30
2022-09-23T20:04:16.989Z,19.26
2022-09-23T20:06:46.202Z,19.24
2022-09-23T20:09:13.849Z,19.20
2022-09-23T20:11:43.335Z,19.18
2022-09-23T20:14:11.283Z,19.16
2022-09-23T20:16:38.807Z,19.18
2022-09-23T20:19:06.487Z,19.16
2022-09-23T20:21:34.445Z,19.15
2022-09-23T20:24:02.580Z,19.14
2022-09-23T20:26:48.047Z,19.12
2022-09-23T20:29:15.354Z,19.12
2022-09-23T20:31:42.711Z,19.13
2022-09-23T20:34:11.054Z,19.15
2022-09-23T20:36:41.545Z,19.19
2022-09-23T20:39:10.305Z,19.21
2022-09-23T20:41:39.570Z,19.21
2022-09-23T20:44:13.108Z,19.17
2022-09-23T20:46:46.751Z,19.12
2022-09-23T20:49:16.382Z,19.09
2022-09-23T20:51:43.556Z,19.04
2022-09-23T20:54:12.246Z,19.02
2022-09-23T20:56:39.547Z,19.06
2022-09-23T20:59:06.945Z,19.09
2022-09-23T21:01:35.963Z,19.07
2022-09-23T21:04:06.024Z,19.07
2022-09-23T21:06:35.631Z,19.02
2022-09-23T21:09:03.448Z,19.03
2022-09-23T21:11:32.262Z,19.01
2022-09-23T21:14:00.607Z,18.97
2022-09-23T21:16:28.594Z,18.93
2022-09-23T21:18:55.786Z,18.89
2022-09-23T21:21:23.009Z,18.85
2022-09-23T21:23:51.276Z,18.84
2022-09-23T21:26:21.092Z,18.82
2022-09-23T21:28:53.099Z,18.80
2022-09-23T21:31:23.554Z,18.74
2022-09-23T21:34:04.265Z,18.71
2022-09-23T21:36:33.802Z,18.70
2022-09-23T21:39:04.658Z,18.69
2022-09-23T21:41:32.561Z,18.68
2022-09-23T21:44:00.871Z,18.66
2022-09-23T21:46:29.084Z,18.66
2022-09-23T21:48:57.655Z,18.66
2022-09-23T21:51:29.842Z,18.63
2022-09-23T21:53:58.546Z,18.62
2022-09-23T21:56:31.520Z,18.60
2022-09-23T21:59:00.147Z,18.59
2022-09-23T22:01:29.934Z,18.59
2022-09-23T22:03:59.293Z,18.60
2022-09-23T22:06:28.649Z,18.58
2022-09-23T22:08:59.964Z,18.58
2022-09-23T22:11:51.539Z,18.56
2022-09-23T22:14:21.079Z,18.56
2022-09-23T22:16:48.355Z,18.55
2022-09-23T22:19:15.791Z,18.55
2022-09-23T22:21:45.664Z,18.59
2022-09-23T22:24:13.357Z,18.63
2022-09-23T22:26:43.228Z,18.62
2022-09-23T22:29:32.838Z,18.58
2022-09-23T22:32:20.352Z,18.51
2022-09-23T22:34:52.551Z,18.44
2022-09-23T22:37:34.320Z,18.40
2022-09-23T22:40:06.080Z,18.38
2022-09-23T22:42:33.645Z,18.37
2022-09-23T22:45:00.859Z,18.34
2022-09-23T22:47:28.102Z,18.29
2022-09-23T22:49:55.691Z,18.28
2022-09-23T22:52:24.732Z,18.26
2022-09-23T22:54:52.704Z,18.25
2022-09-23T22:57:20.324Z,18.28
2022-09-23T22:59:50.682Z,18.26
2022-09-23T23:02:20.256Z,18.26
2022-09-23T23:04:48.542Z,18.24
2022-09-23T23:07:21.935Z,18.21
2022-09-23T23:09:52.671Z,18.22
2022-09-23T23:12:20.755Z,18.21
2022-09-23T23:14:49.428Z,18.20
2022-09-23T23:17:17.788Z,18.23
2022-09-23T23:19:45.269Z,18.24
2022-09-23T23:22:12.492Z,18.25
2022-09-23T23:24:40.029Z,18.26
2022-09-23T23:27:07.205Z,18.26
2022-09-23T23:29:34.364Z,18.25
2022-09-23T23:32:01.872Z,18.23
2022-09-23T23:34:28.969Z,18.21
2022-09-23T23:36:56.179Z,18.21
2022-09-23T23:39:24.910Z,18.21
2022-09-23T23:41:56.455Z,18.18
2022-09-23T23:44:25.538Z,18.18
2022-09-23T23:46:53.837Z,18.14
2022-09-23T23:49:21.719Z,18.14
2022-09-23T23:51:49.038Z,18.16
2022-09-23T23:54:16.513Z,18.17
2022-09-23T23:56:43.628Z,18.17
2022-09-23T23:59:10.932Z,18.16
